createdAt,value
2016-04-29T00:00:56.473Z,17.79
2016-04-29T00:01:56.461Z,17.87
2016-04-29T00:02:56.432Z,17.83
2016-04-29T00:03:56.419Z,17.89
2016-04-29T00:04:56.406Z,17.79
2016-04-29T00:05:56.393Z,17.8
2016-04-29T00:06:56.364Z,17.79
2016-04-29T00:07:56.351Z,17.92
2016-04-29T00:08:56.323Z,17.77
2016-04-29T00:09:56.310Z,17.8
2016-04-29T00:10:56.297Z,17.87
2016-04-29T00:11:56.410Z,17.87
2016-04-29T00:12:56.254Z,17.79
2016-04-29T00:13:56.241Z,17.91
2016-04-29T00:14:56.581Z,17.8
2016-04-29T00:15:56.295Z,17.79
2016-04-29T00:16:56.307Z,17.81
2016-04-29T00:17:56.317Z,17.87
2016-04-29T00:18:56.351Z,17.84
2016-04-29T00:20:05.181Z,17.79
2016-04-29T00:20:56.338Z,17.86
2016-04-29T00:21:56.324Z,17.81
2016-04-29T00:22:56.325Z,17.76
2016-04-29T00:23:56.323Z,17.87
2016-04-29T00:24:56.300Z,17.79
2016-04-29T00:25:56.135Z,17.8
2016-04-29T00:26:56.377Z,17.77
2016-04-29T00:27:56.697Z,17.77
2016-04-29T00:28:56.282Z,17.81
2016-04-29T00:29:56.990Z,17.87
2016-04-29T00:30:56.119Z,17.83
2016-04-29T00:31:56.187Z,17.81
2016-04-29T00:32:56.175Z,17.8
2016-04-29T00:33:56.164Z,17.91
2016-04-29T00:34:56.386Z,17.79
2016-04-29T00:35:56.140Z,17.77
2016-04-29T00:36:56.096Z,17.8
2016-04-29T00:37:56.084Z,17.76
2016-04-29T00:38:56.056Z,17.74
2016-04-29T00:39:56.060Z,17.76
2016-04-29T00:40:56.031Z,17.81
2016-04-29T00:41:56.003Z,17.86
2016-04-29T00:42:56.396Z,17.77
2016-04-29T00:43:55.978Z,17.79
2016-04-29T18:19:17.703Z,19.1
2016-04-29T18:20:18.003Z,19.09
2016-04-29T18:21:17.975Z,19.15
2016-04-29T18:22:17.963Z,19.02
2016-04-29T18:23:18.825Z,19.05
2016-04-29T18:24:17.921Z,19.05
2016-04-29T18:25:17.893Z,19.09
2016-04-29T22:35:25.621Z,18.87
2016-04-29T22:35:38.449Z,18.86
2016-04-29T22:36:38.686Z,18.84
2016-04-29T22:37:38.251Z,18.86
2016-04-29T22:38:38.395Z,18.86
2016-04-29T22:39:38.382Z,18.86
2016-04-29T22:40:38.354Z,18.93
2016-04-29T22:41:38.326Z,18.86
2016-04-29T22:42:38.312Z,18.94
2016-04-29T22:43:37.986Z,18.93
2016-04-29T22:44:38.692Z,18.93
2016-04-29T22:45:38.100Z,18.9
2016-04-29T22:46:38.088Z,18.86
2016-04-29T22:47:37.904Z,18.93
2016-04-29T22:48:39.609Z,18.84
2016-04-29T22:49:38.018Z,18.86
2016-04-29T22:50:38.021Z,18.89
2016-04-29T22:51:38.305Z,18.87
2016-04-29T22:52:37.979Z,18.93
2016-04-29T22:53:37.966Z,18.93
2016-04-29T22:54:38.095Z,18.93
2016-04-29T22:55:38.066Z,18.91
2016-04-29T22:56:38.052Z,18.86
2016-04-29T22:57:37.884Z,18.84
2016-04-29T22:58:38.027Z,18.83
2016-04-29T22:59:38.311Z,18.97
2016-04-29T23:00:37.846Z,18.86
2016-04-29T23:01:37.973Z,18.79
2016-04-29T23:02:37.943Z,18.91
2016-04-29T23:03:37.915Z,18.9
2016-04-29T23:04:37.918Z,18.83
2016-04-29T23:05:37.905Z,18.83
2016-04-29T23:06:37.705Z,18.91
2016-04-29T23:07:38.301Z,18.87
2016-04-29T23:08:37.834Z,18.86
2016-04-29T23:09:37.823Z,18.89
2016-04-29T23:10:37.794Z,18.84
2016-04-29T23:11:37.781Z,18.84
2016-04-29T23:12:37.753Z,18.93
2016-04-29T23:13:37.740Z,18.91
2016-04-29T23:14:37.726Z,18.83
2016-04-29T23:15:38.307Z,18.86
2016-04-29T23:16:37.685Z,18.9
2016-04-29T23:17:37.516Z,18.93
2016-04-29T23:18:38.362Z,18.83
2016-04-29T23:19:37.630Z,18.9
2016-04-29T23:20:37.617Z,18.86
2016-04-29T23:21:37.589Z,18.9
2016-04-29T23:22:37.591Z,18.9
2016-04-29T23:23:37.564Z,18.86
2016-04-29T23:24:37.550Z,18.89
2016-04-29T23:25:37.521Z,18.83
2016-04-29T23:26:37.508Z,18.9
2016-04-29T23:27:37.480Z,18.91
2016-04-29T23:28:37.296Z,18.91
2016-04-29T23:29:37.470Z,18.86
2016-04-29T23:30:37.441Z,18.89
2016-04-29T23:31:37.616Z,18.87
2016-04-29T23:32:37.385Z,18.87
2016-04-29T23:33:37.652Z,18.87
2016-04-29T23:34:37.358Z,18.91
2016-04-29T23:35:37.330Z,18.83
2016-04-29T23:36:37.317Z,18.89
2016-04-29T23:37:37.320Z,18.9
2016-04-29T23:38:37.275Z,18.87
2016-04-29T23:39:37.606Z,18.87
2016-04-29T23:40:37.234Z,18.83
2016-04-29T23:41:37.236Z,18.89
2016-04-29T23:42:37.208Z,18.84
2016-04-29T23:43:37.039Z,18.84
2016-04-29T23:44:37.167Z,18.82
2016-04-29T23:45:37.153Z,18.84
2016-04-29T23:46:37.125Z,18.9
2016-04-29T23:47:36.956Z,18.89
2016-04-29T23:48:37.146Z,18.86
2016-04-29T23:49:37.087Z,18.83
2016-04-29T23:50:37.073Z,18.86
2016-04-29T23:51:37.045Z,18.86
2016-04-29T23:52:37.016Z,18.89
2016-04-29T23:53:36.863Z,18.89
2016-04-29T23:54:37.006Z,18.76
2016-04-29T23:55:36.961Z,18.87
2016-04-29T23:56:36.792Z,18.86
2016-04-29T23:57:36.935Z,18.87
2016-04-29T23:58:36.907Z,18.76
2016-04-29T23:59:36.894Z,18.84
